East Fayetteville, North Carolina
Current Conditions -  °F | °C
As of 1:53 PM on Sunday 23 Nov 2014 (Local Time) from KFAY Reporting Station
Light Rain Light Rain  
Wind Chill: 57°   Ceiling: 600
Heat Index: 57°   Visibility: 4mi
Dew Point: 55°   Wind: 8mph
Humidity: 93%   Direction: 110°ESE
Pressure: 30.04"   Gusts: NA
Location:  35.072°N, 78.8095°W
Report Text: KFAY 231853Z AUTO 11007KT 4SM -RA BR OVC006 14/13 A3004 RMK AO2 RAB03 CIG 004V009 SLP166 P0003 T01390128
Loading
Personal Weather Stations






























Interactive Weather Map New forecast layout! Learn more

10-Day Weather Forecast

Advertisements
Track Severe Weather on mobile